Latest Weather Observations for Strathalbyn

IDS60901

Issued at 7:21 pm CST Tuesday 30 June 2015 (issued every 10 minutes, with the page automatically refreshed every 10 minutes)

About weather observations | Map of Adelaide area stations | Latest observations for Adelaide area | Other Formats
Station Details ID: 024580 Name: STRATHALBYN RACECOURSE Lat: -35.28 Lon: 138.89 Height: 58.0 m
Data from the previous 72 hours. | See also: Recent months at Strathalbyn
Date/Time
CST
Tmp

°C
App
Tmp
°C
Dew
Point
°C
Rel
Hum
%
Delta-T

°C
Wind Press
QNH
hPa
Press
MSL
hPa
Rain
since
9 am
mm
Dir
 
Spd
km/h
Gust
km/h
Spd
kts
Gust
kts
30/07:00pm 9.5 6.9 6.2 80 1.5 W 9 11 5 6 1029.9 - 0.0
30/06:30pm 9.7 7.2 6.6 81 1.5 W 9 11 5 6 1029.7 - 0.0
30/06:00pm 9.7 7.5 6.4 80 1.5 W 7 9 4 5 1029.5 1029.6 0.0
30/05:30pm 10.7 8.5 6.3 74 2.1 W 7 9 4 5 1029.2 - 0.0
30/05:00pm 11.4 9.3 6.5 72 2.3 W 7 11 4 6 1029.0 - 0.0
30/04:30pm 11.9 10.0 6.6 70 2.5 W 6 9 3 5 1028.9 - 0.0
30/04:00pm 12.2 9.7 6.5 68 2.7 W 9 13 5 7 1028.9 - 0.0
30/03:30pm 12.5 9.6 6.3 66 2.9 W 11 15 6 8 1028.9 - 0.0
30/03:00pm 12.5 9.1 5.9 64 3.1 W 13 19 7 10 1028.8 1028.9 0.0
30/02:30pm 12.6 9.3 6.2 65 3.0 W 13 17 7 9 1028.9 - 0.0
30/02:00pm 12.6 9.3 6.2 65 3.0 W 13 19 7 10 1028.9 - 0.0
30/01:30pm 12.7 9.4 6.3 65 3.0 W 13 19 7 10 1028.9 - 0.0
30/01:00pm 12.7 8.9 5.8 63 3.2 W 15 19 8 10 1029.2 - 0.0
30/12:30pm 13.0 10.0 5.9 62 3.4 W 11 15 6 8 1029.6 - 0.0
30/12:00pm 12.8 9.8 5.9 63 3.2 WNW 11 15 6 8 1029.9 1030.0 0.0
30/11:30am 12.7 9.8 6.5 66 3.0 W 11 15 6 8 1030.4 - 0.0
30/11:00am 12.2 9.5 5.6 64 3.1 W 9 13 5 7 1030.7 - 0.0
30/10:30am 12.0 8.7 4.7 61 3.3 WNW 11 17 6 9 1030.8 - 0.0
30/10:00am 11.7 8.0 4.4 61 3.3 W 13 19 7 10 1031.0 - 0.0
30/09:30am 11.6 8.4 5.3 65 2.9 NW 11 15 6 8 1030.8 - 0.0
30/09:00am 10.8 9.2 6.4 74 2.0 NW 4 7 2 4 1030.4 1030.5 0.0
30/08:30am 9.8 9.0 6.7 81 1.5 CALM 0 0 0 0 1030.1 - 0.0
30/08:00am 8.9 6.8 6.7 86 1.0 NW 7 7 4 4 1029.8 - 0.0
30/07:30am 8.8 6.7 6.6 86 1.0 NW 7 11 4 6 1029.8 - 0.0
30/07:00am 9.2 6.7 6.5 83 1.3 NNW 9 13 5 7 1029.3 - 0.0
30/06:30am 9.3 5.6 6.4 82 1.3 NNW 15 17 8 9 1029.1 - 0.0
30/06:00am 9.1 6.6 6.7 85 1.1 WNW 9 11 5 6 1029.1 1029.2 0.0
30/05:30am 9.1 7.6 6.9 86 1.0 WNW 4 9 2 5 1028.9 - 0.0
30/05:00am 9.2 8.5 7.0 86 1.0 CALM 0 0 0 0 1028.9 - 0.0
30/04:30am 9.2 8.5 6.8 85 1.1 CALM 0 6 0 3 1028.8 - 0.0
30/04:00am 9.3 7.2 6.7 84 1.2 WNW 7 9 4 5 1028.6 - 0.0
30/03:30am 9.4 7.3 6.7 83 1.3 WNW 7 9 4 5 1028.7 - 0.0
30/03:00am 9.4 7.5 6.5 82 1.3 WNW 6 7 3 4 1028.8 1028.9 0.0
30/02:30am 9.5 8.7 6.6 82 1.4 CALM 0 0 0 0 1028.8 - 0.0
30/02:00am 9.9 8.4 6.6 80 1.5 WNW 4 9 2 5 1028.9 - 0.0
30/01:30am 10.3 8.1 6.3 76 1.9 WNW 7 9 4 5 1029.1 - 0.0
30/01:00am 9.8 8.2 6.3 79 1.6 WNW 4 6 2 3 1029.2 - 0.0
30/12:30am 10.3 7.7 6.1 75 2.0 WNW 9 9 5 5 1029.5 - 0.0
30/12:00am 10.0 7.8 6.2 77 1.8 NNW 7 11 4 6 1029.9 1030.0 0.0
 
Date/Time
CST
Tmp

°C
App
Tmp
°C
Dew
Point
°C
Rel
Hum
%
Delta-T

°C
Wind Press
QNH
hPa
Press
MSL
hPa
Rain
since
9 am
mm
Dir
 
Spd
km/h
Gust
km/h
Spd
kts
Gust
kts
29/11:30pm 9.7 7.6 6.6 81 1.5 NNW 7 7 4 4 1030.1 - 0.0
29/11:00pm 9.8 7.9 6.9 82 1.4 NNW 6 7 3 4 1030.1 - 0.0
29/10:30pm 10.1 8.2 6.6 79 1.6 NNW 6 7 3 4 1030.0 - 0.0
29/10:00pm 10.1 7.7 6.8 80 1.6 NNW 9 11 5 6 1030.2 - 0.0
29/09:30pm 9.9 8.1 7.0 82 1.4 SSE 6 9 3 5 1030.5 - 0.0
29/09:00pm 10.3 8.2 6.8 79 1.6 SSE 7 11 4 6 1030.5 1030.6 0.0
29/08:30pm 10.3 8.5 7.0 80 1.6 SSE 6 9 3 5 1030.6 - 0.0
29/08:00pm 10.3 8.5 7.2 81 1.5 SSE 6 7 3 4 1030.5 - 0.0
29/07:30pm 10.7 8.8 6.8 77 1.8 SSE 6 7 3 4 1030.5 - 0.0
29/07:00pm 10.8 10.0 6.7 76 1.9 CALM 0 0 0 0 1030.3 - 0.0
29/06:30pm 11.2 9.2 6.3 72 2.3 SSE 6 7 3 4 1030.1 - 0.0
29/06:00pm 11.6 10.3 6.1 69 2.6 SSE 2 7 1 4 1029.9 1030.0 0.0
29/05:30pm 12.0 9.7 5.6 65 3.0 SSE 7 7 4 4 1029.8 - 0.0
29/05:00pm 12.1 10.8 6.2 67 2.8 SSE 2 7 1 4 1029.6 - 0.0
29/04:30pm 12.5 11.0 6.8 68 2.7 SSE 4 6 2 3 1029.7 - 0.0
29/04:00pm 12.8 9.8 6.2 64 3.1 SSE 11 13 6 7 1029.8 - 0.0
29/03:30pm 13.1 11.2 5.0 58 3.8 SE 4 9 2 5 1030.0 - 0.0
29/03:00pm 13.2 11.0 5.1 58 3.7 ENE 6 9 3 5 1030.2 1030.3 0.0
29/02:30pm 13.5 10.6 2.4 47 4.9 ENE 7 11 4 6 1030.3 - 0.0
29/02:00pm 13.7 10.5 3.2 49 4.7 NE 9 15 5 8 1030.4 - 0.0
29/01:30pm 13.8 11.1 2.4 46 5.0 ESE 6 11 3 6 1030.8 - 0.0
29/01:00pm 14.0 10.8 3.2 48 4.9 N 9 17 5 9 1031.2 - 0.0
29/12:30pm 13.8 10.0 1.8 44 5.2 N 11 15 6 8 1031.7 - 0.0
29/12:00pm 13.6 9.6 2.8 48 4.8 N 13 19 7 10 1032.2 1032.3 0.0
29/11:30am 13.5 9.5 3.0 49 4.7 NNE 13 19 7 10 1032.7 - 0.0
29/11:00am 13.2 9.8 4.1 54 4.1 N 11 15 6 8 1033.0 - 0.0
29/10:30am 13.0 10.9 5.9 62 3.4 NNW 6 11 3 6 1033.2 - 0.0
29/10:00am 12.3 9.3 6.1 66 2.9 NNW 11 13 6 7 1033.1 - 0.0
29/09:30am 11.2 8.3 6.3 72 2.3 N 11 13 6 7 1033.2 - 0.0
29/09:00am 10.3 7.4 6.3 76 1.8 N 11 11 6 6 1033.3 1033.4 0.0
29/08:30am 9.5 7.3 6.2 80 1.5 N 7 9 4 5 1033.1 - 0.0
29/08:00am 8.7 6.1 6.0 83 1.2 N 9 11 5 6 1033.0 - 0.0
29/07:30am 8.5 7.6 6.1 85 1.1 CALM 0 0 0 0 1032.8 - 0.0
29/07:00am 8.6 6.6 6.2 85 1.1 N 6 9 3 5 1032.6 - 0.0
29/06:30am 8.3 6.3 6.1 86 1.0 N 6 11 3 6 1032.4 - 0.0
29/06:00am 8.5 6.3 6.0 84 1.1 N 7 9 4 5 1032.2 1032.3 0.0
29/05:30am 8.3 7.0 5.8 84 1.1 N 2 7 1 4 1032.0 - 0.0
29/05:00am 8.5 6.2 5.8 83 1.2 N 7 9 4 5 1032.1 - 0.0
29/04:30am 8.4 6.1 5.7 83 1.2 N 7 11 4 6 1032.3 - 0.0
29/04:00am 8.6 5.9 5.7 82 1.3 N 9 11 5 6 1032.4 - 0.0
29/03:30am 8.8 6.2 5.9 82 1.3 N 9 11 5 6 1032.6 - 0.0
29/03:00am 8.8 6.5 5.9 82 1.3 N 7 11 4 6 1032.7 1032.8 0.0
29/02:30am 9.0 7.4 6.3 83 1.2 N 4 6 2 3 1032.7 - 0.0
29/02:00am 9.2 6.6 6.3 82 1.3 N 9 11 5 6 1032.8 - 0.0
29/01:30am 9.0 6.0 6.1 82 1.3 N 11 13 6 7 1032.9 - 0.0
29/01:00am 8.8 6.6 6.1 83 1.2 N 7 9 4 5 1033.1 - 0.0
29/12:30am 8.9 6.3 6.0 82 1.3 N 9 11 5 6 1033.3 - 0.0
29/12:00am 8.9 6.3 6.2 83 1.2 E 9 11 5 6 1033.6 1033.7 0.0
 
Date/Time
CST
Tmp

°C
App
Tmp
°C
Dew
Point
°C
Rel
Hum
%
Delta-T

°C
Wind Press
QNH
hPa
Press
MSL
hPa
Rain
since
9 am
mm
Dir
 
Spd
km/h
Gust
km/h
Spd
kts
Gust
kts
28/11:30pm 9.0 6.9 5.9 81 1.4 E 6 9 3 5 1033.7 - 0.0
28/11:00pm 8.9 6.8 5.8 81 1.4 E 6 9 3 5 1033.8 - 0.0
28/10:30pm 9.3 6.7 5.9 79 1.6 E 9 15 5 8 1033.8 - 0.0
28/10:00pm 9.1 8.1 5.8 80 1.5 CALM 0 4 0 2 1033.8 - 0.0
28/09:30pm 8.7 6.6 5.6 81 1.4 SSW 6 11 3 6 1033.9 - 0.0
28/09:00pm 9.4 8.4 5.8 78 1.6 CALM 0 6 0 3 1033.8 1033.9 0.0
28/08:30pm 9.2 5.3 5.4 77 1.7 NW 15 15 8 8 1033.6 - 0.0
28/08:00pm 8.2 4.2 4.8 79 1.5 NW 15 15 8 8 1033.6 - 0.0
28/07:30pm 8.1 4.9 4.9 80 1.4 NNW 11 15 6 8 1033.6 - 0.0
28/07:00pm 8.6 5.5 5.4 80 1.4 NW 11 13 6 7 1033.7 - 0.0
28/06:30pm 8.7 5.5 5.3 79 1.5 N 11 13 6 7 1033.5 - 0.0
28/06:00pm 10.2 8.7 5.2 71 2.3 NE 2 7 1 4 1033.3 1033.4 0.0
28/05:30pm 11.2 10.1 4.9 65 2.9 CALM 0 0 0 0 1032.9 - 0.0
28/05:00pm 12.7 10.4 4.7 58 3.7 NE 6 7 3 4 1032.8 - 0.0
28/04:30pm 14.1 11.2 4.9 54 4.3 NE 9 11 5 6 1032.8 - 0.0
28/04:00pm 14.8 11.9 4.8 51 4.7 NE 9 13 5 7 1033.0 - 0.0
28/03:30pm 15.1 11.8 4.8 50 4.8 NNE 11 15 6 8 1032.8 - 0.0
28/03:00pm 15.2 12.1 5.4 52 4.6 N 11 15 6 8 1032.8 1032.9 0.0
28/02:30pm 15.3 12.5 5.2 51 4.8 ENE 9 15 5 8 1032.9 - 0.0
28/02:00pm 15.4 12.0 5.9 53 4.6 NNE 13 19 7 10 1033.1 - 0.0
28/01:30pm 15.0 11.4 5.0 51 4.7 NNE 13 17 7 9 1033.2 - 0.0
28/01:00pm 15.3 11.9 5.8 53 4.6 NE 13 17 7 9 1033.6 - 0.0
28/12:30pm 14.9 10.6 5.4 53 4.5 N 17 24 9 13 1033.7 - 0.0
28/12:00pm 15.0 11.2 5.8 54 4.4 NNE 15 22 8 12 1034.2 1034.3 0.0
28/11:30am 14.4 9.7 5.0 53 4.4 N 19 26 10 14 1034.6 - 0.0
28/11:00am 14.3 10.1 5.9 57 4.0 NNE 17 24 9 13 1034.9 - 0.0
28/10:30am 13.8 9.5 5.2 56 4.0 NNE 17 22 9 12 1034.9 - 0.0
28/10:00am 13.1 9.7 5.8 61 3.4 N 13 19 7 10 1035.1 - 0.0
28/09:30am 11.9 9.4 6.4 69 2.6 W 9 13 5 7 1035.0 - 0.0
28/09:00am 10.4 8.6 7.1 80 1.6 WSW 6 7 3 4 1034.9 1035.0 0.0
28/08:30am 8.9 6.7 6.2 83 1.2 WSW 7 7 4 4 1034.7 - 0.0
28/08:00am 7.4 6.0 5.7 89 0.8 WSW 2 7 1 4 1034.6 - 0.0
28/07:30am 6.6 4.0 4.4 86 1.0 W 7 9 4 5 1034.3 - 0.0
28/07:00am 7.3 6.2 5.1 86 1.0 CALM 0 0 0 0 1034.0 - 0.0
28/06:30am 7.9 4.8 5.7 86 1.0 W 11 15 6 8 1033.6 - 0.0
28/06:00am 7.5 4.8 5.5 87 0.9 SSW 9 11 5 6 1033.5 1033.6 0.0
28/05:30am 7.3 4.9 5.4 88 0.8 SSW 7 9 4 5 1033.3 - 0.0
28/05:00am 7.3 4.9 5.1 86 1.0 SSW 7 11 4 6 1033.1 - 0.0
28/04:30am 8.1 4.9 5.2 82 1.3 NW 11 15 6 8 1033.0 - 0.0
28/04:00am 8.3 4.8 5.4 82 1.3 NNW 13 15 7 8 1032.8 - 0.0
28/03:30am 7.6 3.7 5.2 85 1.1 NNW 15 15 8 8 1033.0 - 0.0
28/03:00am 7.6 3.7 5.2 85 1.1 NNW 15 17 8 9 1033.1 1033.2 0.0
28/02:30am 7.5 3.6 5.3 86 1.0 NNW 15 17 8 9 1033.2 - 0.0
28/02:00am 8.2 4.7 5.5 83 1.2 NNW 13 15 7 8 1033.2 - 0.0
28/01:30am 8.6 5.2 5.9 83 1.2 NNW 13 17 7 9 1033.2 - 0.0
28/01:00am 8.8 5.5 6.2 84 1.2 NNW 13 15 7 8 1033.3 - 0.0
28/12:30am 8.9 5.6 6.2 83 1.2 NNW 13 15 7 8 1033.2 - 0.0
28/12:00am 8.6 6.0 6.2 85 1.1 NNW 9 11 5 6 1033.4 1033.5 0.0
 
Date/Time
CST
Tmp

°C
App
Tmp
°C
Dew
Point
°C
Rel
Hum
%
Delta-T

°C
Wind Press
QNH
hPa
Press
MSL
hPa
Rain
since
9 am
mm
Dir
 
Spd
km/h
Gust
km/h
Spd
kts
Gust
kts
27/11:30pm 8.7 5.8 6.5 86 1.0 NNW 11 15 6 8 1033.3 - 0.0
27/11:00pm 8.2 4.8 6.0 86 1.0 NNW 13 17 7 9 1033.5 - 0.0
27/10:30pm 8.0 5.0 5.8 86 1.0 NNW 11 15 6 8 1033.6 - 0.0
27/10:00pm 8.1 4.3 5.7 85 1.1 N 15 17 8 9 1033.5 - 0.0
27/09:30pm 8.2 5.2 6.0 86 1.0 N 11 13 6 7 1033.4 - 0.0
27/09:00pm 8.1 5.5 5.9 86 1.0 SE 9 11 5 6 1033.4 1033.5 0.0
27/08:30pm 8.0 5.7 5.8 86 1.0 SE 7 9 4 5 1033.5 - 0.0
27/08:00pm 8.4 5.8 6.0 85 1.1 SE 9 11 5 6 1033.5 - 0.0
27/07:30pm 8.7 6.5 6.0 83 1.2 SE 7 9 4 5 1033.4 - 0.0

Latest Capital City Observations: Canberra | Sydney | Melbourne | Brisbane | Adelaide | Perth | Hobart | Darwin

Other Formats:

Comma delimited format used in spreadsheet applications
http://www.bom.gov.au/fwo/IDS60901/IDS60901.94814.axf

JavaScript Object Notation format (JSON) in row-major order
http://www.bom.gov.au/fwo/IDS60901/IDS60901.94814.json